createdAt,value
2016-08-15T00:00:01.705Z,0
2016-08-15T00:01:02.405Z,0
2016-08-15T00:02:01.698Z,0
2016-08-15T00:03:01.722Z,0
2016-08-15T00:04:01.705Z,0
2016-08-15T00:05:01.709Z,0
2016-08-15T00:06:01.706Z,0
2016-08-15T00:07:01.719Z,0
2016-08-15T00:08:02.422Z,0
2016-08-15T00:09:01.711Z,0
2016-08-15T00:10:01.728Z,0
2016-08-15T00:11:02.447Z,0
2016-08-15T00:12:01.723Z,0
2016-08-15T00:13:01.722Z,0
2016-08-15T00:14:02.435Z,0
2016-08-15T00:15:01.723Z,0
2016-08-15T00:16:01.733Z,0
2016-08-15T00:17:01.738Z,0
2016-08-15T00:18:01.725Z,0
2016-08-15T00:19:01.730Z,0
2016-08-15T00:20:01.733Z,0
2016-08-15T00:21:01.775Z,0
2016-08-15T00:22:01.742Z,0
2016-08-15T00:23:01.745Z,0
2016-08-15T00:24:01.736Z,0
2016-08-15T00:25:01.742Z,0
2016-08-15T00:26:01.743Z,0
2016-08-15T00:27:02.456Z,0
2016-08-15T00:28:01.746Z,0
2016-08-15T00:29:01.761Z,0
2016-08-15T00:30:01.755Z,0
2016-08-15T00:31:01.989Z,0
2016-08-15T00:32:01.767Z,0
2016-08-15T00:33:01.765Z,0
2016-08-15T00:34:01.771Z,0
2016-08-15T00:35:01.771Z,0
2016-08-15T00:36:01.771Z,0
2016-08-15T00:37:01.770Z,0
2016-08-15T00:38:01.770Z,0
2016-08-15T00:39:01.805Z,0
2016-08-15T00:40:01.786Z,0
2016-08-15T00:41:01.784Z,0
2016-08-15T00:42:01.786Z,0
2016-08-15T00:43:01.808Z,0
2016-08-15T00:44:01.789Z,0
2016-08-15T00:45:01.788Z,0
2016-08-15T00:46:01.789Z,0
2016-08-15T00:47:01.790Z,0
2016-08-15T00:48:01.809Z,0
2016-08-15T00:49:01.799Z,0
2016-08-15T00:50:02.534Z,0
2016-08-15T00:51:01.802Z,0
2016-08-15T00:52:01.809Z,0
2016-08-15T00:53:03.228Z,0
2016-08-15T00:54:01.821Z,0
2016-08-15T00:55:01.817Z,0
2016-08-15T00:56:01.815Z,0
2016-08-15T00:57:01.870Z,0
2016-08-15T00:58:01.829Z,0
2016-08-15T00:59:01.815Z,0
2016-08-15T01:00:02.586Z,0
2016-08-15T01:01:01.838Z,0
2016-08-15T01:02:01.838Z,0
2016-08-15T01:03:01.834Z,0
2016-08-15T01:04:01.829Z,0
2016-08-15T01:05:01.835Z,0
2016-08-15T01:06:02.541Z,0
2016-08-15T01:07:01.837Z,0
2016-08-15T01:08:01.841Z,0
2016-08-15T01:09:01.847Z,0
2016-08-15T01:10:01.839Z,0
2016-08-15T01:11:01.845Z,0
2016-08-15T01:12:01.847Z,0
2016-08-15T01:13:01.849Z,0
2016-08-15T01:14:01.846Z,0
2016-08-15T01:15:01.862Z,0
2016-08-15T01:16:01.857Z,0
2016-08-15T01:17:01.864Z,0
2016-08-15T01:18:01.862Z,0
2016-08-15T01:19:01.864Z,0
2016-08-15T01:20:01.873Z,0
2016-08-15T01:21:01.867Z,0
2016-08-15T01:22:01.867Z,0
2016-08-15T01:23:02.580Z,0
2016-08-15T01:24:01.884Z,0
2016-08-15T01:25:01.895Z,0
2016-08-15T01:26:01.885Z,0
2016-08-15T01:27:02.590Z,0
2016-08-15T01:28:01.900Z,0
2016-08-15T01:29:01.895Z,0
2016-08-15T01:30:01.897Z,0
2016-08-15T01:31:02.600Z,0
2016-08-15T01:32:01.892Z,0
2016-08-15T01:33:01.901Z,0
2016-08-15T01:34:01.894Z,0
2016-08-15T01:35:01.906Z,0
2016-08-15T01:36:01.911Z,0
2016-08-15T01:37:01.901Z,0
2016-08-15T01:38:01.908Z,0
2016-08-15T01:39:01.904Z,0
2016-08-15T01:40:01.908Z,0
2016-08-15T01:41:01.917Z,0
2016-08-15T01:42:01.908Z,0
2016-08-15T01:43:01.926Z,0
2016-08-15T01:44:02.623Z,0
2016-08-15T01:45:01.938Z,0
2016-08-15T01:46:01.916Z,0
2016-08-15T01:47:01.920Z,0
2016-08-15T01:48:01.928Z,0
2016-08-15T01:49:01.922Z,0
2016-08-15T01:50:02.640Z,0
2016-08-15T01:51:02.649Z,0
2016-08-15T01:52:01.931Z,0
2016-08-15T01:53:01.935Z,0
2016-08-15T01:54:02.642Z,0
2016-08-15T01:55:01.932Z,0
2016-08-15T01:56:01.936Z,0
2016-08-15T01:57:02.038Z,0
2016-08-15T01:58:01.938Z,0
2016-08-15T01:59:01.941Z,0
2016-08-15T02:00:01.948Z,0
2016-08-15T02:01:02.659Z,0
2016-08-15T02:02:01.958Z,0
2016-08-15T02:03:01.969Z,0
2016-08-15T02:04:02.663Z,0
2016-08-15T02:05:01.978Z,0
2016-08-15T02:06:01.962Z,0
2016-08-15T02:07:01.981Z,0
2016-08-15T02:08:01.955Z,0
2016-08-15T02:09:02.689Z,0
2016-08-15T02:10:01.981Z,0
2016-08-15T02:11:01.969Z,0
2016-08-15T02:12:01.973Z,0
2016-08-15T02:13:01.973Z,0
2016-08-15T02:14:02.680Z,0
2016-08-15T02:15:01.981Z,0
2016-08-15T02:16:01.974Z,0
2016-08-15T02:17:02.011Z,0
2016-08-15T02:18:02.686Z,0
2016-08-15T02:19:01.981Z,0
2016-08-15T02:20:01.980Z,0
2016-08-15T02:21:01.983Z,0
2016-08-15T02:22:01.991Z,0
2016-08-15T02:23:01.996Z,0
2016-08-15T02:24:02.000Z,0
2016-08-15T02:25:02.708Z,0
2016-08-15T02:26:01.998Z,0
2016-08-15T02:27:01.992Z,0
2016-08-15T02:28:01.998Z,0
2016-08-15T02:29:02.712Z,0
2016-08-15T02:30:02.020Z,0
2016-08-15T02:31:02.021Z,0
2016-08-15T02:32:02.004Z,0
2016-08-15T02:33:02.003Z,0
2016-08-15T02:34:02.009Z,0
2016-08-15T02:35:02.008Z,0
2016-08-15T02:36:02.022Z,0
2016-08-15T02:37:02.023Z,0
2016-08-15T02:38:02.021Z,0
2016-08-15T02:39:02.728Z,0
2016-08-15T02:40:02.026Z,0
2016-08-15T02:41:02.024Z,0
2016-08-15T02:42:02.043Z,0
2016-08-15T02:43:02.033Z,0
2016-08-15T02:44:02.027Z,0
2016-08-15T02:45:02.034Z,0
2016-08-15T02:46:02.031Z,0
2016-08-15T02:47:02.032Z,0
2016-08-15T02:48:02.031Z,0
2016-08-15T02:49:02.035Z,0
2016-08-15T02:50:02.039Z,0
2016-08-15T02:51:02.035Z,0
2016-08-15T02:52:02.759Z,0
2016-08-15T02:53:02.043Z,0
2016-08-15T02:54:02.045Z,0
2016-08-15T02:55:02.046Z,0
2016-08-15T02:56:02.047Z,0
2016-08-15T02:57:02.912Z,0
2016-08-15T02:58:02.056Z,0
2016-08-15T02:59:02.769Z,0
2016-08-15T03:00:02.054Z,0
2016-08-15T03:01:02.062Z,0
2016-08-15T03:02:02.068Z,0
2016-08-15T03:03:02.061Z,0
2016-08-15T03:04:02.065Z,0
2016-08-15T03:05:02.065Z,0
2016-08-15T03:06:02.061Z,0
2016-08-15T03:07:02.076Z,0
2016-08-15T03:08:02.072Z,0
2016-08-15T03:09:02.068Z,0
2016-08-15T03:10:02.074Z,0
2016-08-15T03:11:02.079Z,0
2016-08-15T03:12:02.072Z,0
2016-08-15T03:13:02.076Z,0
2016-08-15T03:14:02.795Z,0
2016-08-15T03:15:02.088Z,0
2016-08-15T03:16:02.103Z,0
2016-08-15T03:17:02.102Z,0
2016-08-15T03:18:02.083Z,0
2016-08-15T03:19:02.102Z,0
2016-08-15T03:20:02.093Z,0
2016-08-15T03:21:02.090Z,0
2016-08-15T03:22:02.094Z,0
2016-08-15T03:23:02.109Z,0
2016-08-15T03:24:02.102Z,0
2016-08-15T03:25:02.107Z,0
2016-08-15T03:26:02.104Z,0
2016-08-15T03:27:02.108Z,0
2016-08-15T03:28:02.823Z,0
2016-08-15T03:29:02.106Z,0
2016-08-15T03:30:02.826Z,0
2016-08-15T03:31:02.114Z,0
2016-08-15T03:32:02.131Z,0
2016-08-15T03:33:02.817Z,0
2016-08-15T03:34:02.138Z,0
2016-08-15T03:35:02.121Z,0
2016-08-15T03:36:02.132Z,0
2016-08-15T03:37:02.829Z,4
2016-08-15T03:38:02.120Z,4
2016-08-15T03:39:02.118Z,4
2016-08-15T03:40:02.126Z,0
2016-08-15T03:41:02.120Z,4
2016-08-15T03:42:02.127Z,4
2016-08-15T03:43:02.142Z,0
2016-08-15T03:44:02.140Z,4
2016-08-15T03:45:02.134Z,4
2016-08-15T03:46:02.131Z,4
2016-08-15T03:47:02.134Z,4
2016-08-15T03:48:02.136Z,4
2016-08-15T03:49:02.142Z,4
2016-08-15T03:50:02.152Z,8
2016-08-15T03:51:02.148Z,8
2016-08-15T03:52:02.141Z,12
2016-08-15T03:53:02.142Z,12
2016-08-15T03:54:02.152Z,16
2016-08-15T03:55:02.146Z,16
2016-08-15T03:56:02.147Z,24
2016-08-15T03:57:02.217Z,24
2016-08-15T03:58:02.152Z,28
2016-08-15T03:59:02.171Z,32
2016-08-15T04:00:02.167Z,36
2016-08-15T04:01:02.156Z,44
2016-08-15T04:02:02.874Z,52
2016-08-15T04:03:02.873Z,56
2016-08-15T04:04:02.169Z,68
2016-08-15T04:05:02.876Z,76
2016-08-15T04:06:02.179Z,88
2016-08-15T04:07:02.881Z,96
2016-08-15T04:08:02.881Z,108
2016-08-15T04:09:02.169Z,120
2016-08-15T04:10:02.197Z,136
2016-08-15T04:11:02.168Z,148
2016-08-15T04:12:02.188Z,164
2016-08-15T04:13:02.885Z,180
2016-08-15T04:14:02.176Z,200
2016-08-15T04:15:02.185Z,220
2016-08-15T04:16:02.189Z,240
2016-08-15T04:17:02.189Z,260
2016-08-15T04:18:02.185Z,284
2016-08-15T04:19:02.198Z,308
2016-08-15T04:20:02.187Z,328
2016-08-15T04:21:02.189Z,348
2016-08-15T04:22:02.201Z,376
2016-08-15T04:23:02.191Z,404
2016-08-15T04:24:02.192Z,436
2016-08-15T04:25:02.196Z,472
2016-08-15T04:26:02.193Z,500
2016-08-15T04:27:02.206Z,536
2016-08-15T04:28:02.916Z,572
2016-08-15T04:29:02.206Z,608
2016-08-15T04:30:02.206Z,648
2016-08-15T04:31:02.498Z,688
2016-08-15T04:32:02.923Z,728
2016-08-15T04:33:02.211Z,768
2016-08-15T04:34:02.214Z,808
2016-08-15T04:35:02.213Z,848
2016-08-15T04:36:02.213Z,900
2016-08-15T04:37:02.216Z,920
2016-08-15T04:38:02.215Z,984
2016-08-15T04:39:02.213Z,1004
2016-08-15T04:40:02.226Z,1032
2016-08-15T04:41:02.215Z,1064
2016-08-15T04:42:02.222Z,1084
2016-08-15T04:43:03.634Z,1084
2016-08-15T04:44:02.224Z,1096
2016-08-15T04:45:02.231Z,1132
2016-08-15T04:46:02.223Z,1176
2016-08-15T04:47:02.937Z,1236
2016-08-15T04:48:02.227Z,1312
2016-08-15T04:49:02.231Z,1368
2016-08-15T04:50:02.233Z,1500
2016-08-15T04:51:02.244Z,1740
2016-08-15T04:52:02.243Z,1852
2016-08-15T04:53:02.245Z,1808
2016-08-15T04:54:02.951Z,1828
2016-08-15T04:55:02.949Z,2608
2016-08-15T04:56:02.245Z,3392
2016-08-15T04:57:03.093Z,3532
2016-08-15T04:58:02.250Z,3820
2016-08-15T04:59:02.958Z,3656
2016-08-15T05:00:02.247Z,3940
2016-08-15T05:01:02.314Z,4048
2016-08-15T05:02:02.250Z,4192
2016-08-15T05:03:02.263Z,4384
2016-08-15T05:04:02.257Z,4484
2016-08-15T05:05:02.254Z,4648
2016-08-15T05:06:02.258Z,4732
2016-08-15T05:07:03.710Z,4848
2016-08-15T05:08:02.270Z,4988
2016-08-15T05:09:02.269Z,5108
2016-08-15T05:10:03.708Z,5416
2016-08-15T05:11:02.297Z,5336
2016-08-15T05:12:02.313Z,5476
2016-08-15T05:13:02.295Z,5440
2016-08-15T05:14:02.290Z,5596
2016-08-15T05:15:02.304Z,5780
2016-08-15T05:16:03.011Z,5848
2016-08-15T05:17:02.301Z,6084
2016-08-15T05:18:02.301Z,5680
2016-08-15T05:19:02.318Z,5956
2016-08-15T05:20:03.043Z,6420
2016-08-15T05:21:02.307Z,6508
2016-08-15T05:22:02.322Z,6180
2016-08-15T05:23:02.322Z,6660
2016-08-15T05:24:02.321Z,6668
2016-08-15T05:25:02.329Z,6672
2016-08-15T05:26:02.343Z,6624
2016-08-15T05:27:02.356Z,6668
2016-08-15T05:28:02.362Z,6648
2016-08-15T05:29:03.078Z,7672
2016-08-15T05:30:02.368Z,6860
2016-08-15T05:31:02.377Z,7056
2016-08-15T05:32:02.359Z,7044
2016-08-15T05:33:02.381Z,6984
2016-08-15T05:34:02.386Z,6876
2016-08-15T05:35:02.389Z,6708
2016-08-15T05:36:02.396Z,6564
2016-08-15T05:37:02.389Z,6408
2016-08-15T05:38:02.398Z,6204
2016-08-15T05:39:02.393Z,5920
2016-08-15T05:40:02.399Z,5584
2016-08-15T05:41:02.407Z,5332
2016-08-15T05:42:02.409Z,7268
2016-08-15T05:43:02.418Z,4884
2016-08-15T05:44:02.419Z,4396
2016-08-15T05:45:03.134Z,4344
2016-08-15T05:46:02.442Z,4324
2016-08-15T05:47:02.443Z,4332
2016-08-15T05:48:03.143Z,4348
2016-08-15T05:49:02.459Z,4348
2016-08-15T05:50:02.450Z,4356
2016-08-15T05:51:02.453Z,4368
2016-08-15T05:52:02.460Z,4380
2016-08-15T05:53:02.472Z,4396
2016-08-15T05:54:02.477Z,4424
2016-08-15T05:55:02.471Z,4476
2016-08-15T05:56:02.486Z,4556
2016-08-15T05:57:02.540Z,9988
2016-08-15T05:58:03.195Z,4704
2016-08-15T05:59:02.513Z,4624
2016-08-15T06:00:02.506Z,5292
2016-08-15T06:01:02.500Z,5432
2016-08-15T06:02:02.497Z,5540
2016-08-15T06:03:03.211Z,5640
2016-08-15T06:04:02.516Z,5720
2016-08-15T06:05:03.233Z,5796
2016-08-15T06:06:03.217Z,5920
2016-08-15T06:07:03.248Z,6068
2016-08-15T06:08:02.537Z,6192
2016-08-15T06:09:03.246Z,10456
2016-08-15T06:10:02.543Z,6688
2016-08-15T06:11:02.538Z,6488
2016-08-15T06:12:02.550Z,4840
2016-08-15T06:13:03.247Z,5252
2016-08-15T06:14:02.563Z,5244
2016-08-15T06:15:03.284Z,5276
2016-08-15T06:16:02.560Z,5392
2016-08-15T06:17:02.561Z,5564
2016-08-15T06:18:02.588Z,5828
2016-08-15T06:19:02.568Z,6168
2016-08-15T06:20:02.574Z,6592
2016-08-15T06:21:02.574Z,7120
2016-08-15T06:22:02.573Z,7784
2016-08-15T06:23:03.293Z,8220
2016-08-15T06:24:03.309Z,8708
2016-08-15T06:25:02.592Z,9256
2016-08-15T06:26:02.596Z,9560
2016-08-15T06:27:02.623Z,9844
2016-08-15T06:28:02.597Z,10040
2016-08-15T06:29:02.628Z,10140
2016-08-15T06:30:02.624Z,10204
2016-08-15T06:31:02.607Z,11076
2016-08-15T06:32:02.614Z,10316
2016-08-15T06:33:02.636Z,10444
2016-08-15T06:34:02.628Z,10428
2016-08-15T06:35:02.626Z,10412
2016-08-15T06:36:02.630Z,10424
2016-08-15T06:37:02.678Z,10484
2016-08-15T06:38:02.646Z,10540
2016-08-15T06:39:02.668Z,10616
2016-08-15T06:40:02.660Z,10476
2016-08-15T06:41:03.396Z,10436
2016-08-15T06:42:02.690Z,10576
2016-08-15T06:43:02.694Z,10520
2016-08-15T06:44:02.688Z,10640
2016-08-15T06:45:03.413Z,10672
2016-08-15T06:46:02.731Z,10716
2016-08-15T06:47:02.707Z,10744
2016-08-15T06:48:03.418Z,10776
2016-08-15T06:49:02.716Z,10812
2016-08-15T06:50:02.726Z,11224
2016-08-15T06:51:03.449Z,11240
2016-08-15T06:52:03.479Z,11264
2016-08-15T06:53:02.758Z,11388
2016-08-15T06:54:02.764Z,11376
2016-08-15T06:55:02.763Z,11380
2016-08-15T06:56:02.769Z,10080
2016-08-15T06:57:02.822Z,11024
2016-08-15T06:58:03.490Z,10936
2016-08-15T06:59:02.795Z,11124
2016-08-15T07:00:02.826Z,11308
2016-08-15T07:01:02.805Z,11400
2016-08-15T07:02:02.827Z,11444
2016-08-15T07:03:02.957Z,11388
2016-08-15T07:04:02.825Z,11420
2016-08-15T07:05:02.835Z,11388
2016-08-15T07:06:02.845Z,11180
2016-08-15T07:07:02.849Z,11212
2016-08-15T07:08:02.860Z,11140
2016-08-15T07:09:03.575Z,11216
2016-08-15T07:10:02.876Z,11020
2016-08-15T07:11:02.898Z,11228
2016-08-15T07:12:02.897Z,11276
2016-08-15T07:13:02.899Z,11428
2016-08-15T07:14:02.908Z,11428
2016-08-15T07:15:03.628Z,11308
2016-08-15T07:16:02.922Z,11236
2016-08-15T07:17:02.937Z,11308
2016-08-15T07:18:02.944Z,11368
2016-08-15T07:19:02.947Z,11464
2016-08-15T07:20:02.961Z,11436
2016-08-15T07:21:02.968Z,11428
2016-08-15T07:22:02.980Z,11432
2016-08-15T07:23:02.984Z,11404
2016-08-15T07:24:03.001Z,11472
2016-08-15T07:25:03.003Z,11428
2016-08-15T07:26:03.008Z,11392
2016-08-15T07:27:03.732Z,11184
2016-08-15T07:28:03.030Z,10964
2016-08-15T07:29:03.046Z,10924
2016-08-15T07:30:03.048Z,10312
2016-08-15T07:31:03.094Z,9732
2016-08-15T07:32:03.777Z,10232
2016-08-15T07:33:03.786Z,9988
2016-08-15T07:34:03.086Z,9564
2016-08-15T07:35:03.093Z,9364
2016-08-15T07:36:03.090Z,9260
2016-08-15T07:37:03.819Z,9012
2016-08-15T07:38:03.104Z,9068
2016-08-15T07:39:03.148Z,9280
2016-08-15T07:40:03.128Z,9168
2016-08-15T07:41:03.140Z,8944
2016-08-15T07:42:03.147Z,8872
2016-08-15T07:43:03.147Z,9084
2016-08-15T07:44:03.860Z,9464
2016-08-15T07:45:03.164Z,9696
2016-08-15T07:46:03.179Z,9328
2016-08-15T07:47:03.181Z,8644
2016-08-15T07:48:03.179Z,8296
2016-08-15T07:49:03.190Z,8688
2016-08-15T07:50:03.203Z,9312
2016-08-15T07:51:03.204Z,9820
2016-08-15T07:52:03.207Z,10072
2016-08-15T07:53:03.219Z,10120
2016-08-15T07:54:03.225Z,10232
2016-08-15T07:55:03.229Z,10204
2016-08-15T07:56:03.239Z,10124
2016-08-15T07:57:04.042Z,10056
2016-08-15T07:58:03.970Z,10080
2016-08-15T07:59:03.284Z,10164
2016-08-15T08:00:03.267Z,10296
2016-08-15T08:01:03.274Z,10332
2016-08-15T08:02:03.293Z,10316
2016-08-15T08:03:03.288Z,10312
2016-08-15T08:04:04.006Z,10196
2016-08-15T08:05:03.315Z,10192
2016-08-15T08:06:03.311Z,10164
2016-08-15T08:07:03.329Z,10160
2016-08-15T08:08:03.331Z,9980
2016-08-15T08:09:03.349Z,10108
2016-08-15T08:10:03.349Z,10144
2016-08-15T08:11:03.355Z,10100
2016-08-15T08:12:03.376Z,10076
2016-08-15T08:13:03.391Z,9984
2016-08-15T08:14:03.382Z,9928
2016-08-15T08:15:03.388Z,9864
2016-08-15T08:16:03.403Z,9776
2016-08-15T08:17:03.406Z,9700
2016-08-15T08:18:03.413Z,9656
2016-08-15T08:19:03.427Z,9616
2016-08-15T08:20:03.432Z,9620
2016-08-15T08:21:03.440Z,9468
2016-08-15T08:22:03.458Z,9436
2016-08-15T08:23:03.463Z,9384
2016-08-15T08:24:03.466Z,9348
2016-08-15T08:25:03.483Z,9312
2016-08-15T08:26:03.485Z,9280
2016-08-15T08:27:04.207Z,9200
2016-08-15T08:28:03.521Z,9164
2016-08-15T08:29:03.551Z,9132
2016-08-15T08:30:03.522Z,9156
2016-08-15T08:31:03.534Z,9044
2016-08-15T08:32:03.536Z,9004
2016-08-15T08:33:03.556Z,8976
2016-08-15T08:34:03.557Z,8928
2016-08-15T08:35:04.266Z,8828
2016-08-15T08:36:03.586Z,8732
2016-08-15T08:37:03.586Z,8644
2016-08-15T08:38:04.292Z,8568
2016-08-15T08:39:03.611Z,8512
2016-08-15T08:40:03.609Z,8432
2016-08-15T08:41:03.620Z,8360
2016-08-15T08:42:03.623Z,8364
2016-08-15T08:43:04.343Z,8256
2016-08-15T08:44:03.644Z,8208
2016-08-15T08:45:05.068Z,8176
2016-08-15T08:46:03.671Z,8132
2016-08-15T08:47:03.675Z,8108
2016-08-15T08:48:03.676Z,8052
2016-08-15T08:49:04.404Z,8044
2016-08-15T08:50:03.698Z,8020
2016-08-15T08:51:03.737Z,7980
2016-08-15T08:52:03.709Z,8056
2016-08-15T08:53:03.731Z,8264
2016-08-15T08:54:03.745Z,7924
2016-08-15T08:55:03.741Z,7940
2016-08-15T08:56:03.760Z,7892
2016-08-15T08:57:03.807Z,7856
2016-08-15T08:58:03.766Z,7804
2016-08-15T08:59:03.778Z,7752
2016-08-15T09:00:04.495Z,7712
2016-08-15T09:01:03.795Z,7688
2016-08-15T09:02:03.796Z,7688
2016-08-15T09:03:03.811Z,7664
2016-08-15T09:04:03.824Z,7640
2016-08-15T09:05:04.532Z,7632
2016-08-15T09:06:04.619Z,7644
2016-08-15T09:07:03.830Z,7588
2016-08-15T09:08:03.848Z,7572
2016-08-15T09:09:03.844Z,7544
2016-08-15T09:10:04.570Z,7556
2016-08-15T09:11:03.866Z,7500
2016-08-15T09:12:03.871Z,7484
2016-08-15T09:13:04.587Z,7488
2016-08-15T09:14:03.877Z,7460
2016-08-15T09:15:03.886Z,7392
2016-08-15T09:16:03.887Z,7344
2016-08-15T09:17:03.894Z,7288
2016-08-15T09:18:03.897Z,7248
2016-08-15T09:19:03.923Z,7228
2016-08-15T09:20:03.920Z,7224
2016-08-15T09:21:03.919Z,7192
2016-08-15T09:22:03.936Z,7196
2016-08-15T09:23:03.928Z,7112
2016-08-15T09:24:04.660Z,7056
2016-08-15T09:25:04.650Z,6996
2016-08-15T09:26:03.957Z,6968
2016-08-15T09:27:03.959Z,6944
2016-08-15T09:28:03.959Z,6944
2016-08-15T09:29:03.974Z,6904
2016-08-15T09:30:03.982Z,6884
2016-08-15T09:31:03.980Z,6876
2016-08-15T09:32:04.003Z,6796
2016-08-15T09:33:04.005Z,6764
2016-08-15T09:34:03.995Z,6784
2016-08-15T09:35:04.011Z,6744
2016-08-15T09:36:04.007Z,6712
2016-08-15T09:37:04.016Z,6676
2016-08-15T09:38:04.031Z,6652
2016-08-15T09:39:04.023Z,6640
2016-08-15T09:40:04.036Z,6628
2016-08-15T09:41:04.037Z,6604
2016-08-15T09:42:04.043Z,6584
2016-08-15T09:43:04.043Z,6576
2016-08-15T09:44:04.080Z,6612
2016-08-15T09:45:04.059Z,6544
2016-08-15T09:46:04.064Z,6524
2016-08-15T09:47:04.076Z,6500
2016-08-15T09:48:04.078Z,6472
2016-08-15T09:49:04.092Z,6452
2016-08-15T09:50:04.087Z,6436
2016-08-15T09:51:04.799Z,6432
2016-08-15T09:52:04.120Z,6408
2016-08-15T09:53:04.105Z,6388
2016-08-15T09:54:04.120Z,6420
2016-08-15T09:55:04.124Z,6420
2016-08-15T09:56:04.120Z,6360
2016-08-15T09:57:04.198Z,6352
2016-08-15T09:58:04.857Z,6324
2016-08-15T09:59:04.153Z,6256
2016-08-15T10:00:04.146Z,6308
2016-08-15T10:01:04.146Z,6288
2016-08-15T10:02:04.173Z,6336
2016-08-15T10:03:04.161Z,6336
2016-08-15T10:04:04.161Z,6324
2016-08-15T10:05:04.172Z,6348
2016-08-15T10:06:04.186Z,6320
2016-08-15T10:07:04.189Z,6340
2016-08-15T10:08:04.192Z,6352
2016-08-15T10:09:04.195Z,6352
2016-08-15T10:10:04.199Z,6348
2016-08-15T10:11:04.216Z,6336
2016-08-15T10:12:04.212Z,6336
2016-08-15T10:13:04.224Z,6324
2016-08-15T10:14:04.223Z,6304
2016-08-15T10:15:04.944Z,6280
2016-08-15T10:16:04.233Z,6296
2016-08-15T10:17:04.253Z,6284
2016-08-15T10:18:04.422Z,6264
2016-08-15T10:20:04.282Z,6288
2016-08-15T10:21:04.279Z,6312
2016-08-15T10:22:04.264Z,6368
2016-08-15T10:23:04.280Z,6316
2016-08-15T10:24:04.286Z,6296
2016-08-15T10:25:04.289Z,5976
2016-08-15T10:26:04.291Z,6420
2016-08-15T10:27:04.295Z,6500
2016-08-15T10:28:04.312Z,6672
2016-08-15T10:29:04.325Z,6900
2016-08-15T10:30:04.318Z,6012
2016-08-15T10:31:04.319Z,6788
2016-08-15T10:32:04.339Z,7108
2016-08-15T10:33:04.334Z,6948
2016-08-15T10:34:04.341Z,6868
2016-08-15T10:35:04.351Z,6768
2016-08-15T10:36:04.357Z,6596
2016-08-15T10:37:04.360Z,4580
2016-08-15T10:38:04.364Z,4488
2016-08-15T10:39:04.365Z,4416
2016-08-15T10:40:04.399Z,4360
2016-08-15T10:41:04.384Z,4400
2016-08-15T10:42:04.390Z,4480
2016-08-15T10:43:04.395Z,5780
2016-08-15T10:44:04.415Z,6356
2016-08-15T10:45:04.409Z,6452
2016-08-15T10:46:04.411Z,6636
2016-08-15T10:47:04.432Z,6800
2016-08-15T10:48:05.131Z,6848
2016-08-15T10:49:04.430Z,5320
2016-08-15T10:50:05.152Z,6484
2016-08-15T10:51:05.149Z,6788
2016-08-15T10:52:04.450Z,5676
2016-08-15T10:53:04.463Z,6448
2016-08-15T10:54:04.469Z,6388
2016-08-15T10:55:04.485Z,6188
2016-08-15T10:56:04.472Z,6756
2016-08-15T10:57:04.535Z,6820
2016-08-15T10:58:04.483Z,6992
2016-08-15T10:59:04.504Z,7036
2016-08-15T11:00:04.500Z,6668
2016-08-15T11:01:04.511Z,6260
2016-08-15T11:02:04.512Z,4944
2016-08-15T11:03:04.518Z,4816
2016-08-15T11:04:04.525Z,4916
2016-08-15T11:05:04.538Z,4984
2016-08-15T11:06:04.541Z,5248
2016-08-15T11:07:04.542Z,6588
2016-08-15T11:08:04.567Z,5244
2016-08-15T11:09:04.552Z,5356
2016-08-15T11:10:04.566Z,6616
2016-08-15T11:11:04.565Z,6824
2016-08-15T11:12:04.569Z,6696
2016-08-15T11:13:05.300Z,6616
2016-08-15T11:14:04.610Z,6688
2016-08-15T11:15:04.603Z,6784
2016-08-15T11:16:04.601Z,6836
2016-08-15T11:17:04.603Z,6856
2016-08-15T11:18:04.603Z,6756
2016-08-15T11:19:04.618Z,6740
2016-08-15T11:20:04.617Z,6768
2016-08-15T11:21:04.622Z,6860
2016-08-15T11:22:04.640Z,6932
2016-08-15T11:23:04.636Z,6976
2016-08-15T11:24:04.640Z,7056
2016-08-15T11:25:04.651Z,7056
2016-08-15T11:26:04.663Z,7136
2016-08-15T11:27:04.666Z,7116
2016-08-15T11:28:04.665Z,7216
2016-08-15T11:29:04.679Z,7316
2016-08-15T11:30:04.700Z,7236
2016-08-15T11:31:04.683Z,7132
2016-08-15T11:32:04.715Z,7156
2016-08-15T11:33:05.417Z,7260
2016-08-15T11:34:04.717Z,7400
2016-08-15T11:35:04.710Z,7516
2016-08-15T11:36:04.724Z,7980
2016-08-15T11:37:04.723Z,8156
2016-08-15T11:38:04.724Z,8148
2016-08-15T11:39:04.758Z,8184
2016-08-15T11:40:04.744Z,6820
2016-08-15T11:41:04.764Z,6932
2016-08-15T11:42:04.760Z,6768
2016-08-15T11:43:04.769Z,6484
2016-08-15T11:44:05.490Z,6612
2016-08-15T11:45:04.787Z,6688
2016-08-15T11:46:04.798Z,6672
2016-08-15T11:47:04.796Z,7944
2016-08-15T11:48:04.807Z,7860
2016-08-15T11:49:05.024Z,6972
2016-08-15T11:50:05.519Z,8092
2016-08-15T11:51:04.821Z,7768
2016-08-15T11:52:04.827Z,8248
2016-08-15T11:53:04.846Z,9020
2016-08-15T11:54:04.837Z,9036
2016-08-15T11:55:04.856Z,8912
2016-08-15T11:56:04.855Z,8804
2016-08-15T11:57:04.923Z,8952
2016-08-15T11:58:04.891Z,9044
2016-08-15T11:59:04.893Z,9020
2016-08-15T12:00:05.601Z,9032
2016-08-15T12:01:04.891Z,8992
2016-08-15T12:02:04.912Z,9100
2016-08-15T12:03:04.910Z,9192
2016-08-15T12:04:04.914Z,9128
2016-08-15T12:05:04.911Z,8860
2016-08-15T12:06:04.940Z,8624
2016-08-15T12:07:04.920Z,8200
2016-08-15T12:08:04.954Z,7292
2016-08-15T12:09:04.940Z,7280
2016-08-15T12:10:04.971Z,7212
2016-08-15T12:11:05.676Z,7040
2016-08-15T12:12:04.977Z,6960
2016-08-15T12:13:04.975Z,6928
2016-08-15T12:14:04.991Z,7140
2016-08-15T12:15:04.987Z,7140
2016-08-15T12:16:04.985Z,7156
2016-08-15T12:17:05.001Z,7676
2016-08-15T12:18:05.033Z,7376
2016-08-15T12:19:05.022Z,7584
2016-08-15T12:20:05.015Z,6232
2016-08-15T12:21:05.720Z,6216
2016-08-15T12:22:05.039Z,6116
2016-08-15T12:23:05.038Z,6156
2016-08-15T12:24:05.036Z,6876
2016-08-15T12:25:05.031Z,6572
2016-08-15T12:26:05.042Z,6864
2016-08-15T12:27:05.047Z,6380
2016-08-15T12:28:05.055Z,7016
2016-08-15T12:29:05.056Z,6844
2016-08-15T12:30:05.074Z,6664
2016-08-15T12:31:05.094Z,6564
2016-08-15T12:32:05.087Z,6644
2016-08-15T12:33:05.108Z,6744
2016-08-15T12:34:05.091Z,6756
2016-08-15T12:35:05.105Z,6680
2016-08-15T12:36:05.105Z,6656
2016-08-15T12:37:05.104Z,6676
2016-08-15T12:38:05.826Z,6580
2016-08-15T12:39:05.848Z,6572
2016-08-15T12:40:05.130Z,6608
2016-08-15T12:41:05.848Z,6632
2016-08-15T12:42:05.139Z,6588
2016-08-15T12:43:05.154Z,6592
2016-08-15T12:44:05.856Z,6448
2016-08-15T12:45:05.172Z,6356
2016-08-15T12:46:05.198Z,6212
2016-08-15T12:47:05.180Z,6092
2016-08-15T12:48:05.175Z,6104
2016-08-15T12:49:05.183Z,6076
2016-08-15T12:50:05.200Z,5976
2016-08-15T12:51:05.199Z,6048
2016-08-15T12:52:05.216Z,6096
2016-08-15T12:53:05.216Z,6160
2016-08-15T12:54:05.218Z,6236
2016-08-15T12:55:05.224Z,6980
2016-08-15T12:56:05.232Z,7424
2016-08-15T12:57:06.154Z,7408
2016-08-15T12:58:05.242Z,7120
2016-08-15T12:59:05.257Z,7436
2016-08-15T13:00:05.251Z,7484
2016-08-15T13:01:05.257Z,7552
2016-08-15T13:02:05.281Z,7428
2016-08-15T13:03:05.281Z,7268
2016-08-15T13:04:05.279Z,7232
2016-08-15T13:05:05.286Z,7060
2016-08-15T13:06:05.286Z,6924
2016-08-15T13:07:05.290Z,6884
2016-08-15T13:08:05.313Z,6712
2016-08-15T13:09:06.733Z,6404
2016-08-15T13:10:06.034Z,6200
2016-08-15T13:11:05.375Z,6060
2016-08-15T13:12:05.328Z,5956
2016-08-15T13:13:05.329Z,5876
2016-08-15T13:14:05.337Z,5792
2016-08-15T13:15:05.346Z,5744
2016-08-15T13:16:05.417Z,5784
2016-08-15T13:17:05.372Z,5700
2016-08-15T13:18:06.082Z,5696
2016-08-15T13:19:05.387Z,5704
2016-08-15T13:20:05.380Z,5680
2016-08-15T13:21:05.382Z,5676
2016-08-15T13:22:05.516Z,5612
2016-08-15T13:23:05.408Z,5596
2016-08-15T13:24:06.123Z,5636
2016-08-15T13:25:06.127Z,5692
2016-08-15T13:26:05.429Z,5712
2016-08-15T13:27:05.435Z,5796
2016-08-15T13:28:05.436Z,5856
2016-08-15T13:29:05.437Z,5876
2016-08-15T13:30:05.449Z,5876
2016-08-15T13:31:05.455Z,5916
2016-08-15T13:32:05.455Z,5912
2016-08-15T13:33:05.465Z,5820
2016-08-15T13:34:05.467Z,5748
2016-08-15T13:35:05.478Z,5732
2016-08-15T13:36:05.482Z,5744
2016-08-15T13:37:05.509Z,5848
2016-08-15T13:38:05.518Z,5744
2016-08-15T13:39:06.277Z,5620
2016-08-15T13:40:05.574Z,5520
2016-08-15T13:41:05.516Z,5432